createdAt,value
2023-05-02T00:00:39.892Z,45.27
2023-05-02T00:03:06.386Z,45.16
2023-05-02T00:05:33.272Z,45.11
2023-05-02T00:07:59.697Z,45.08
2023-05-02T00:10:26.062Z,44.99
2023-05-02T00:12:52.415Z,45.21
2023-05-02T00:15:18.767Z,45.09
2023-05-02T00:17:45.600Z,45.11
2023-05-02T00:20:11.973Z,45.01
2023-05-02T00:22:38.373Z,45.10
2023-05-02T00:25:05.068Z,45.12
2023-05-02T00:27:34.221Z,45.07
2023-05-02T00:30:01.223Z,45.26
2023-05-02T00:32:28.150Z,45.14
2023-05-02T00:34:54.696Z,45.11
2023-05-02T00:37:21.206Z,45.18
2023-05-02T00:39:47.786Z,45.14
2023-05-02T00:42:14.201Z,45.13
2023-05-02T00:44:40.672Z,45.18
2023-05-02T00:47:07.015Z,45.26
2023-05-02T00:49:33.699Z,45.24
2023-05-02T00:52:00.207Z,45.15
2023-05-02T00:54:26.555Z,45.21
2023-05-02T00:56:52.925Z,45.43
2023-05-02T00:59:19.894Z,45.43
2023-05-02T01:01:53.917Z,45.32
2023-05-02T01:04:32.217Z,45.55
2023-05-02T01:07:01.536Z,45.42
2023-05-02T01:09:42.262Z,45.26
2023-05-02T01:12:23.856Z,45.28
2023-05-02T01:14:54.909Z,45.46
2023-05-02T01:17:21.883Z,45.50
2023-05-02T01:19:51.014Z,45.31
2023-05-02T01:22:17.557Z,45.35
2023-05-02T01:24:50.147Z,45.53
2023-05-02T01:27:37.075Z,45.31
2023-05-02T01:30:03.882Z,45.35
2023-05-02T01:32:31.067Z,45.51
2023-05-02T01:34:57.518Z,45.36
2023-05-02T01:37:24.286Z,45.38
2023-05-02T01:39:50.663Z,45.34
2023-05-02T01:42:17.001Z,45.42
2023-05-02T01:44:44.598Z,45.49
2023-05-02T01:47:11.129Z,45.26
2023-05-02T01:49:37.637Z,45.62
2023-05-02T01:52:05.148Z,45.54
2023-05-02T01:54:31.480Z,45.71
2023-05-02T01:56:57.834Z,45.53
2023-05-02T01:59:24.190Z,45.41
2023-05-02T02:01:51.499Z,45.61
2023-05-02T02:04:17.909Z,45.57
2023-05-02T02:06:45.737Z,45.43
2023-05-02T02:09:12.135Z,45.46
2023-05-02T02:11:44.018Z,45.45
2023-05-02T02:14:23.867Z,45.43
2023-05-02T02:16:50.786Z,45.66
2023-05-02T02:19:17.196Z,45.50
2023-05-02T02:21:43.614Z,45.42
2023-05-02T02:24:09.976Z,45.53
2023-05-02T02:26:36.453Z,45.73
2023-05-02T02:29:03.345Z,45.72
2023-05-02T02:31:32.965Z,45.69
2023-05-02T02:33:59.500Z,45.59
2023-05-02T02:36:31.608Z,45.82
2023-05-02T02:39:02.850Z,45.78
2023-05-02T02:41:32.964Z,45.60
2023-05-02T02:44:04.958Z,45.86
2023-05-02T02:46:34.859Z,45.69
2023-05-02T02:49:15.136Z,45.48
2023-05-02T02:51:45.911Z,45.38
2023-05-02T02:54:27.178Z,45.23
2023-05-02T02:56:59.144Z,45.18
2023-05-02T02:59:35.379Z,45.31
2023-05-02T03:02:08.536Z,45.28
2023-05-02T03:04:35.442Z,45.29
2023-05-02T03:07:03.065Z,45.30
2023-05-02T03:09:40.204Z,45.59
2023-05-02T03:12:07.568Z,45.38
2023-05-02T03:14:36.127Z,45.39
2023-05-02T03:17:02.546Z,45.38
2023-05-02T03:19:29.438Z,45.43
2023-05-02T03:21:56.526Z,45.33
2023-05-02T03:24:22.939Z,45.39
2023-05-02T03:26:49.310Z,45.54
2023-05-02T03:29:21.309Z,45.40
2023-05-02T03:31:47.767Z,45.42
2023-05-02T03:34:14.161Z,45.27
2023-05-02T03:36:41.716Z,45.39
2023-05-02T03:39:08.060Z,45.47
2023-05-02T03:41:34.760Z,45.64
2023-05-02T03:44:06.633Z,45.54
2023-05-02T03:46:33.244Z,45.70
2023-05-02T03:49:00.825Z,45.77
2023-05-02T03:51:27.219Z,45.97
2023-05-02T03:53:56.656Z,45.96
2023-05-02T03:56:23.131Z,45.88
2023-05-02T03:58:59.729Z,45.87
2023-05-02T04:01:27.105Z,45.95
2023-05-02T04:03:54.828Z,46.01
2023-05-02T04:06:23.599Z,45.94
2023-05-02T04:08:59.459Z,46.23
2023-05-02T04:11:30.775Z,45.94
2023-05-02T04:13:57.131Z,46.01
2023-05-02T04:16:23.712Z,45.94
2023-05-02T04:18:50.173Z,46.09
2023-05-02T04:21:17.518Z,46.04
2023-05-02T04:23:45.039Z,46.05
2023-05-02T04:26:11.477Z,46.13
2023-05-02T04:28:44.822Z,46.13
2023-05-02T04:31:14.268Z,46.15
2023-05-02T04:33:41.164Z,45.91
2023-05-02T04:36:07.852Z,45.98
2023-05-02T04:38:34.568Z,45.99
2023-05-02T04:41:09.180Z,45.99
2023-05-02T04:43:41.447Z,46.05
2023-05-02T04:46:08.445Z,46.18
2023-05-02T04:48:41.920Z,45.98
2023-05-02T04:51:11.336Z,46.08
2023-05-02T04:53:37.725Z,46.09
2023-05-02T04:56:04.128Z,46.10
2023-05-02T04:58:35.131Z,46.15
2023-05-02T05:01:04.365Z,46.13
2023-05-02T05:03:31.270Z,46.12
2023-05-02T05:05:57.981Z,46.27
2023-05-02T05:08:25.215Z,46.17
2023-05-02T05:10:51.833Z,46.20
2023-05-02T05:13:19.481Z,46.25
2023-05-02T05:15:48.176Z,44.97
2023-05-02T05:18:16.515Z,45.67
2023-05-02T05:20:42.936Z,45.70
2023-05-02T05:23:10.182Z,45.42
2023-05-02T05:25:36.607Z,46.01
2023-05-02T05:28:02.998Z,45.44
2023-05-02T05:30:31.466Z,45.67
2023-05-02T05:32:59.478Z,45.53
2023-05-02T05:35:25.875Z,45.52
2023-05-02T05:37:53.303Z,45.76
2023-05-02T05:40:21.308Z,45.86
2023-05-02T05:42:52.556Z,45.93
2023-05-02T05:45:24.827Z,45.63
2023-05-02T05:47:51.629Z,45.43
2023-05-02T05:50:18.317Z,45.54
2023-05-02T05:52:45.924Z,45.46
2023-05-02T05:55:12.805Z,45.74
2023-05-02T05:57:39.464Z,45.85
2023-05-02T06:00:07.394Z,46.35
2023-05-02T06:02:42.299Z,47.78
2023-05-02T06:05:14.878Z,47.81
2023-05-02T06:07:42.632Z,46.80
2023-05-02T06:10:10.353Z,46.59
2023-05-02T06:12:37.947Z,46.52
2023-05-02T06:15:05.478Z,46.03
2023-05-02T06:17:32.248Z,46.38
2023-05-02T06:19:58.817Z,46.24
2023-05-02T06:22:25.448Z,46.26
2023-05-02T06:24:52.254Z,46.23
2023-05-02T06:27:18.618Z,46.35
2023-05-02T06:29:44.976Z,46.38
2023-05-02T06:32:11.302Z,46.45
2023-05-02T06:34:37.658Z,46.75
2023-05-02T06:37:04.002Z,46.00
2023-05-02T06:39:30.664Z,45.48
2023-05-02T06:41:57.863Z,45.30
2023-05-02T06:44:24.224Z,44.87
2023-05-02T06:46:50.766Z,45.05
2023-05-02T06:49:17.124Z,44.59
2023-05-02T06:51:43.502Z,44.59
2023-05-02T06:54:09.883Z,44.09
2023-05-02T06:56:36.267Z,44.36
2023-05-02T06:59:02.653Z,43.46
2023-05-02T07:01:29.067Z,43.94
2023-05-02T07:03:55.482Z,43.89
2023-05-02T07:06:21.970Z,44.19
2023-05-02T07:08:48.484Z,43.67
2023-05-02T07:11:14.882Z,43.78
2023-05-02T07:13:41.245Z,43.78
2023-05-02T07:16:07.689Z,43.14
2023-05-02T07:18:34.062Z,43.50
2023-05-02T07:21:01.395Z,43.35
2023-05-02T07:23:28.318Z,43.09
2023-05-02T07:25:54.803Z,43.56
2023-05-02T07:28:21.162Z,43.84
2023-05-02T07:30:47.540Z,43.70
2023-05-02T07:33:14.676Z,44.02
2023-05-02T07:35:41.053Z,44.59
2023-05-02T07:38:07.391Z,44.31
2023-05-02T07:40:33.773Z,44.63
2023-05-02T07:43:03.071Z,45.01
2023-05-02T07:45:29.500Z,45.66
2023-05-02T07:47:55.993Z,45.41
2023-05-02T07:50:22.591Z,45.46
2023-05-02T07:52:48.961Z,45.45
2023-05-02T07:55:15.457Z,45.62
2023-05-02T07:57:42.281Z,45.63
2023-05-02T08:00:10.118Z,45.81
2023-05-02T08:02:39.591Z,45.69
2023-05-02T08:05:06.424Z,45.85
2023-05-02T08:07:33.578Z,45.64
2023-05-02T08:10:00.169Z,45.32
2023-05-02T08:12:26.676Z,45.33
2023-05-02T08:14:53.064Z,45.75
2023-05-02T08:17:19.423Z,45.47
2023-05-02T08:19:45.773Z,45.55
2023-05-02T08:22:12.126Z,45.67
2023-05-02T08:24:38.681Z,45.80
2023-05-02T08:27:05.025Z,45.97
2023-05-02T08:29:31.575Z,46.32
2023-05-02T08:31:57.965Z,46.60
2023-05-02T08:34:24.344Z,45.93
2023-05-02T08:36:50.828Z,45.63
2023-05-02T08:39:17.768Z,45.61
2023-05-02T08:41:44.864Z,45.26
2023-05-02T08:44:11.464Z,46.21
2023-05-02T08:46:37.910Z,46.00
2023-05-02T08:49:04.339Z,46.23
2023-05-02T08:51:32.723Z,45.39
2023-05-02T08:53:59.224Z,45.18
2023-05-02T08:56:26.243Z,45.25
2023-05-02T08:58:52.601Z,45.76
2023-05-02T09:01:19.688Z,45.62
2023-05-02T09:03:46.467Z,45.10
2023-05-02T09:06:22.202Z,45.34
2023-05-02T09:08:49.415Z,45.41
2023-05-02T09:11:16.493Z,45.96
2023-05-02T09:13:43.742Z,45.29
2023-05-02T09:16:10.907Z,45.11
2023-05-02T09:18:43.953Z,45.20
2023-05-02T09:21:12.341Z,44.89
2023-05-02T09:23:41.816Z,45.25
2023-05-02T09:26:21.301Z,45.26
2023-05-02T09:28:48.394Z,45.05
2023-05-02T09:31:18.742Z,44.78
2023-05-02T09:33:49.433Z,44.87
2023-05-02T09:36:16.287Z,44.93
2023-05-02T09:38:42.990Z,44.92
2023-05-02T09:41:09.522Z,44.75
2023-05-02T09:43:35.885Z,44.78
2023-05-02T09:46:06.104Z,44.73
2023-05-02T09:48:33.007Z,44.91
2023-05-02T09:50:59.414Z,44.64
2023-05-02T09:53:26.269Z,44.68
2023-05-02T09:56:02.516Z,44.79
2023-05-02T09:58:30.782Z,44.62
2023-05-02T10:00:57.393Z,44.52
2023-05-02T10:03:24.477Z,44.91
2023-05-02T10:05:50.960Z,44.63
2023-05-02T10:08:18.415Z,45.01
2023-05-02T10:10:50.195Z,45.14
2023-05-02T10:13:17.175Z,45.42
2023-05-02T10:15:43.897Z,45.47
2023-05-02T10:18:17.771Z,45.36
2023-05-02T10:20:52.955Z,45.67
2023-05-02T10:23:19.333Z,45.91
2023-05-02T10:25:45.719Z,45.55
2023-05-02T10:28:12.109Z,45.84
2023-05-02T10:30:39.083Z,45.80
2023-05-02T10:33:05.461Z,45.87
2023-05-02T10:35:31.806Z,45.16
2023-05-02T10:37:59.269Z,45.30
2023-05-02T10:40:26.231Z,45.71
2023-05-02T10:42:52.990Z,45.41
2023-05-02T10:45:32.174Z,45.81
2023-05-02T10:48:13.866Z,45.72
2023-05-02T10:50:43.814Z,45.33
2023-05-02T10:53:26.203Z,45.39
2023-05-02T10:56:11.450Z,46.01
2023-05-02T10:58:37.853Z,45.66
2023-05-02T11:01:23.201Z,45.19
2023-05-02T11:04:01.568Z,45.36
2023-05-02T11:06:28.412Z,45.91
2023-05-02T11:09:15.323Z,45.43
2023-05-02T11:11:42.334Z,45.10
2023-05-02T11:14:09.094Z,45.21
2023-05-02T11:17:04.584Z,45.20
2023-05-02T11:19:54.057Z,45.18
2023-05-02T11:22:28.042Z,45.89
2023-05-02T11:24:54.460Z,45.71
2023-05-02T11:27:30.028Z,45.82
2023-05-02T11:29:59.234Z,46.14
2023-05-02T11:32:27.274Z,45.94
2023-05-02T11:34:55.571Z,46.27
2023-05-02T11:37:22.199Z,46.51
2023-05-02T11:39:48.738Z,46.41
2023-05-02T11:42:30.360Z,46.29
2023-05-02T11:45:00.136Z,46.56
2023-05-02T11:47:27.504Z,46.42
2023-05-02T11:49:56.889Z,46.85
2023-05-02T11:52:23.352Z,46.40
2023-05-02T11:54:53.614Z,46.52
2023-05-02T11:57:19.946Z,46.49
2023-05-02T11:59:49.098Z,46.56
2023-05-02T12:02:15.534Z,46.07
2023-05-02T12:04:42.277Z,46.13
2023-05-02T12:07:10.203Z,45.84
2023-05-02T12:09:51.229Z,45.57
2023-05-02T12:12:21.253Z,45.16
2023-05-02T12:14:47.600Z,45.59
2023-05-02T12:17:13.946Z,45.37
2023-05-02T12:19:40.290Z,45.35
2023-05-02T12:22:07.815Z,45.37
2023-05-02T12:24:35.938Z,45.59
2023-05-02T12:27:14.464Z,45.57
2023-05-02T12:29:44.078Z,45.56
2023-05-02T12:32:11.021Z,45.54
2023-05-02T12:34:37.543Z,45.61
2023-05-02T12:37:04.012Z,45.54
2023-05-02T12:39:36.690Z,45.00
2023-05-02T12:42:12.445Z,44.74
2023-05-02T12:44:39.400Z,45.01
2023-05-02T12:47:05.827Z,44.93
2023-05-02T12:49:32.262Z,45.03
2023-05-02T12:51:59.176Z,44.88
2023-05-02T12:54:26.641Z,45.73
2023-05-02T12:56:53.005Z,45.42
2023-05-02T12:59:28.646Z,45.59
2023-05-02T13:01:55.036Z,45.52
2023-05-02T13:04:21.550Z,45.16
2023-05-02T13:06:48.088Z,45.18
2023-05-02T13:09:14.450Z,45.03
2023-05-02T13:11:40.849Z,45.71
2023-05-02T13:14:07.219Z,44.98
2023-05-02T13:16:34.630Z,45.39
2023-05-02T13:19:01.136Z,45.16
2023-05-02T13:21:27.486Z,45.17
2023-05-02T13:23:55.333Z,45.75
2023-05-02T13:26:21.685Z,46.04
2023-05-02T13:28:48.284Z,46.00
2023-05-02T13:31:14.665Z,43.41
2023-05-02T13:33:41.158Z,45.20
2023-05-02T13:36:07.537Z,45.65
2023-05-02T13:38:34.773Z,45.32
2023-05-02T13:41:01.129Z,45.11
2023-05-02T13:43:27.596Z,45.07
2023-05-02T13:45:53.950Z,45.12
2023-05-02T13:48:20.613Z,44.95
2023-05-02T13:50:47.181Z,45.09
2023-05-02T13:53:13.567Z,45.27
2023-05-02T13:55:39.922Z,45.30
2023-05-02T13:58:06.644Z,45.46
2023-05-02T14:00:33.035Z,45.21
2023-05-02T14:02:59.434Z,45.22
2023-05-02T14:05:25.995Z,45.25
2023-05-02T14:07:52.344Z,45.59
2023-05-02T14:10:18.702Z,45.62
2023-05-02T14:12:45.078Z,45.24
2023-05-02T14:15:13.038Z,45.35
2023-05-02T14:17:39.586Z,45.64
2023-05-02T14:20:06.272Z,45.84
2023-05-02T14:22:32.737Z,45.75
2023-05-02T14:24:59.104Z,45.79
2023-05-02T14:27:25.896Z,46.23
2023-05-02T14:29:52.329Z,45.83
2023-05-02T14:32:18.790Z,45.82
2023-05-02T14:34:45.304Z,45.81
2023-05-02T14:37:11.756Z,45.80
2023-05-02T14:39:39.120Z,45.96
2023-05-02T14:42:06.104Z,45.45
2023-05-02T14:44:32.513Z,45.90
2023-05-02T14:46:58.963Z,45.79
2023-05-02T14:49:25.592Z,45.58
2023-05-02T14:51:52.421Z,45.42
2023-05-02T14:54:20.297Z,45.57
2023-05-02T14:56:47.356Z,45.50
2023-05-02T14:59:14.027Z,45.72
2023-05-02T15:01:40.672Z,45.88
2023-05-02T15:04:08.431Z,45.99
2023-05-02T15:06:36.231Z,46.22
2023-05-02T15:09:03.375Z,46.33
2023-05-02T15:11:29.919Z,46.16
2023-05-02T15:13:58.452Z,46.19
2023-05-02T15:16:27.271Z,46.53
2023-05-02T15:18:54.293Z,46.26
2023-05-02T15:21:20.815Z,46.26
2023-05-02T15:23:47.569Z,45.67
2023-05-02T15:26:14.113Z,45.56
2023-05-02T15:28:40.983Z,45.72
2023-05-02T15:31:07.463Z,45.64
2023-05-02T15:33:33.932Z,45.77
2023-05-02T15:36:00.717Z,46.66
2023-05-02T15:38:27.590Z,46.44
2023-05-02T15:40:57.075Z,46.81
2023-05-02T15:43:23.629Z,46.97
2023-05-02T15:45:50.503Z,46.91
2023-05-02T15:48:16.914Z,46.23
2023-05-02T15:50:43.303Z,42.70
2023-05-02T15:53:10.261Z,42.28
2023-05-02T15:55:36.678Z,42.60
2023-05-02T15:58:03.031Z,42.77
2023-05-02T16:00:29.530Z,43.99
2023-05-02T16:02:55.943Z,44.36
2023-05-02T16:05:22.388Z,45.26
2023-05-02T16:07:48.795Z,45.04
2023-05-02T16:10:15.139Z,45.24
2023-05-02T16:12:41.516Z,45.30
2023-05-02T16:15:08.361Z,45.26
2023-05-02T16:17:34.792Z,45.54
2023-05-02T16:20:01.574Z,46.20
2023-05-02T16:22:28.756Z,45.78
2023-05-02T16:24:55.195Z,44.88
2023-05-02T16:27:21.590Z,45.60
2023-05-02T16:29:48.518Z,46.39
2023-05-02T16:32:14.866Z,46.39
2023-05-02T16:34:41.232Z,46.79
2023-05-02T16:37:07.583Z,47.19
2023-05-02T16:39:34.027Z,47.08
2023-05-02T16:42:00.375Z,46.93
2023-05-02T16:44:26.749Z,47.33
2023-05-02T16:46:53.169Z,46.86
2023-05-02T16:49:19.528Z,47.43
2023-05-02T16:51:48.860Z,47.42
2023-05-02T16:54:15.309Z,47.51
2023-05-02T16:56:42.933Z,47.65
2023-05-02T16:59:09.378Z,47.32
2023-05-02T17:01:35.900Z,47.60
2023-05-02T17:04:02.286Z,47.67
2023-05-02T17:06:28.668Z,47.64
2023-05-02T17:08:55.073Z,47.68
2023-05-02T17:11:21.834Z,43.91
2023-05-02T17:13:49.724Z,39.04
2023-05-02T17:16:17.973Z,36.79
2023-05-02T17:18:44.368Z,36.27
2023-05-02T17:21:10.876Z,35.80
2023-05-02T17:23:37.433Z,36.01
2023-05-02T17:26:05.479Z,37.85
2023-05-02T17:28:31.838Z,39.62
2023-05-02T17:30:59.281Z,40.85
2023-05-02T17:33:27.387Z,41.38
2023-05-02T17:35:54.163Z,41.84
2023-05-02T17:38:20.667Z,42.22
2023-05-02T17:40:47.039Z,42.51
2023-05-02T17:43:13.396Z,43.00
2023-05-02T17:45:41.443Z,43.04
2023-05-02T17:48:07.872Z,43.32
2023-05-02T17:50:38.226Z,43.27
2023-05-02T17:53:07.264Z,43.60
2023-05-02T17:55:36.958Z,43.64
2023-05-02T17:58:03.431Z,44.05
2023-05-02T18:00:32.726Z,43.97
2023-05-02T18:02:59.250Z,44.42
2023-05-02T18:05:26.758Z,44.14
2023-05-02T18:07:53.305Z,44.42
2023-05-02T18:10:19.641Z,44.65
2023-05-02T18:12:46.465Z,45.15
2023-05-02T18:15:12.824Z,45.54
2023-05-02T18:17:39.263Z,45.59
2023-05-02T18:20:07.063Z,45.50
2023-05-02T18:22:33.677Z,45.78
2023-05-02T18:25:00.170Z,45.86
2023-05-02T18:27:26.835Z,45.76
2023-05-02T18:29:54.401Z,45.41
2023-05-02T18:32:21.563Z,45.96
2023-05-02T18:34:48.366Z,45.64
2023-05-02T18:37:14.737Z,45.99
2023-05-02T18:39:41.089Z,45.83
2023-05-02T18:42:08.295Z,46.40
2023-05-02T18:44:34.713Z,45.80
2023-05-02T18:47:01.070Z,46.21
2023-05-02T18:49:27.442Z,46.41
2023-05-02T18:51:54.310Z,46.59
2023-05-02T18:54:22.258Z,46.74
2023-05-02T18:56:49.211Z,47.45
2023-05-02T18:59:15.604Z,47.52
2023-05-02T19:01:42.019Z,46.57
2023-05-02T19:04:08.380Z,46.43
2023-05-02T19:06:34.823Z,46.56
2023-05-02T19:09:01.743Z,46.63
2023-05-02T19:11:28.109Z,47.17
2023-05-02T19:13:56.705Z,47.67
2023-05-02T19:16:25.858Z,48.51
2023-05-02T19:18:54.638Z,48.61
2023-05-02T19:21:21.523Z,48.79
2023-05-02T19:23:48.486Z,49.75
2023-05-02T19:26:15.387Z,49.52
2023-05-02T19:28:41.753Z,49.62
2023-05-02T19:31:10.482Z,49.35
2023-05-02T19:33:37.849Z,49.43
2023-05-02T19:36:06.547Z,49.52
2023-05-02T19:38:33.408Z,49.52
2023-05-02T19:40:59.986Z,49.61
2023-05-02T19:43:27.525Z,49.45
2023-05-02T19:45:53.941Z,49.81
2023-05-02T19:48:22.405Z,50.30
2023-05-02T19:50:49.351Z,49.88
2023-05-02T19:53:15.786Z,50.02
2023-05-02T19:55:42.166Z,49.57
2023-05-02T19:58:08.559Z,49.81
2023-05-02T20:00:34.942Z,49.95
2023-05-02T20:03:01.489Z,50.31
2023-05-02T20:05:27.889Z,50.43
2023-05-02T20:07:54.268Z,50.18
2023-05-02T20:10:20.792Z,50.25
2023-05-02T20:12:47.175Z,50.33
2023-05-02T20:15:13.932Z,50.39
2023-05-02T20:17:40.346Z,50.33
2023-05-02T20:20:08.262Z,50.48
2023-05-02T20:22:34.804Z,50.54
2023-05-02T20:25:01.214Z,50.61
2023-05-02T20:27:27.589Z,50.58
2023-05-02T20:29:53.939Z,50.64
2023-05-02T20:32:20.486Z,50.78
2023-05-02T20:34:47.283Z,50.66
2023-05-02T20:37:13.695Z,50.77
2023-05-02T20:39:40.080Z,50.99
2023-05-02T20:42:06.510Z,51.18
2023-05-02T20:44:36.493Z,51.13
2023-05-02T20:47:03.642Z,51.11
2023-05-02T20:49:32.957Z,51.38
2023-05-02T20:52:03.417Z,51.31
2023-05-02T20:54:29.851Z,51.33
2023-05-02T20:56:56.236Z,51.29
2023-05-02T20:59:22.623Z,51.30
2023-05-02T21:01:49.047Z,51.33
2023-05-02T21:04:15.523Z,51.58
2023-05-02T21:06:41.955Z,51.36
2023-05-02T21:09:09.493Z,51.57
2023-05-02T21:11:35.917Z,51.30
2023-05-02T21:14:02.323Z,51.33
2023-05-02T21:16:28.761Z,51.52
2023-05-02T21:18:55.342Z,51.14
2023-05-02T21:21:22.375Z,51.41
2023-05-02T21:23:48.773Z,51.12
2023-05-02T21:26:15.129Z,51.21
2023-05-02T21:28:41.471Z,51.25
2023-05-02T21:31:07.988Z,51.50
2023-05-02T21:33:34.435Z,51.51
2023-05-02T21:36:01.410Z,51.68
2023-05-02T21:38:27.864Z,51.65
2023-05-02T21:40:54.246Z,51.45
2023-05-02T21:43:20.794Z,51.67
2023-05-02T21:45:47.493Z,51.48
2023-05-02T21:48:13.970Z,51.42
2023-05-02T21:50:40.870Z,51.76
2023-05-02T21:53:07.215Z,51.65
2023-05-02T21:55:33.567Z,51.68
2023-05-02T21:57:59.922Z,51.67
2023-05-02T22:00:26.351Z,51.72
2023-05-02T22:02:52.885Z,51.62
2023-05-02T22:05:19.374Z,51.56
2023-05-02T22:07:47.741Z,51.37
2023-05-02T22:10:14.728Z,51.69
2023-05-02T22:12:41.229Z,51.72
2023-05-02T22:15:08.123Z,51.59
2023-05-02T22:17:34.493Z,51.76
2023-05-02T22:20:02.654Z,51.71
2023-05-02T22:22:29.316Z,51.99
2023-05-02T22:24:56.587Z,51.58
2023-05-02T22:27:22.949Z,51.97
2023-05-02T22:29:49.283Z,51.93
2023-05-02T22:32:15.845Z,51.73
2023-05-02T22:34:42.415Z,51.96
2023-05-02T22:37:08.759Z,51.96
2023-05-02T22:39:35.119Z,51.69
2023-05-02T22:42:01.576Z,51.75
2023-05-02T22:44:27.943Z,51.80
2023-05-02T22:46:54.852Z,51.62
2023-05-02T22:49:21.230Z,51.71
2023-05-02T22:51:48.068Z,51.76
2023-05-02T22:54:15.151Z,51.64
2023-05-02T22:56:41.529Z,51.46
2023-05-02T22:59:07.880Z,51.75
2023-05-02T23:01:34.502Z,51.45
2023-05-02T23:04:01.164Z,51.59
2023-05-02T23:06:31.435Z,51.84
2023-05-02T23:08:57.809Z,51.57
2023-05-02T23:11:24.194Z,51.64
2023-05-02T23:13:50.541Z,51.63
2023-05-02T23:16:17.004Z,51.61
2023-05-02T23:18:43.352Z,51.65
2023-05-02T23:21:15.954Z,51.38
2023-05-02T23:23:42.290Z,51.58
2023-05-02T23:26:09.338Z,51.39
2023-05-02T23:28:35.710Z,51.63
2023-05-02T23:31:02.752Z,51.51
2023-05-02T23:33:29.695Z,51.42
2023-05-02T23:35:56.222Z,51.44
2023-05-02T23:38:22.549Z,51.44
2023-05-02T23:40:48.912Z,51.27
2023-05-02T23:43:15.232Z,51.44
2023-05-02T23:45:41.602Z,51.25
2023-05-02T23:48:07.996Z,51.22
2023-05-02T23:50:34.401Z,51.22
2023-05-02T23:53:01.201Z,51.38
2023-05-02T23:55:27.613Z,51.38
2023-05-02T23:57:53.975Z,51.23
